sensor_id;sensor_type;location;lat;lon;timestamp;temperature;humidity
39919;DHT22;25589;51.552;13.424;2022-11-24T00:01:25;3.20;99.90
39919;DHT22;25589;51.552;13.424;2022-11-24T00:04:03;3.90;99.90
39919;DHT22;25589;51.552;13.424;2022-11-24T00:06:31;3.50;99.90
39919;DHT22;25589;51.552;13.424;2022-11-24T00:08:57;3.00;99.90
39919;DHT22;25589;51.552;13.424;2022-11-24T00:13:51;2.10;99.90
39919;DHT22;25589;51.552;13.424;2022-11-24T00:16:35;3.10;99.90
39919;DHT22;25589;51.552;13.424;2022-11-24T00:19:04;2.80;99.90
39919;DHT22;25589;51.552;13.424;2022-11-24T00:21:30;4.00;99.90
39919;DHT22;25589;51.552;13.424;2022-11-24T00:23:57;3.00;99.90
39919;DHT22;25589;51.552;13.424;2022-11-24T00:26:28;3.00;99.90
39919;DHT22;25589;51.552;13.424;2022-11-24T00:28:56;3.90;99.90
39919;DHT22;25589;51.552;13.424;2022-11-24T00:31:23;3.10;99.90
39919;DHT22;25589;51.552;13.424;2022-11-24T00:33:51;2.90;99.90
39919;DHT22;25589;51.552;13.424;2022-11-24T00:36:18;3.40;99.90
39919;DHT22;25589;51.552;13.424;2022-11-24T00:38:44;3.50;99.90
39919;DHT22;25589;51.552;13.424;2022-11-24T00:41:10;2.90;99.90
39919;DHT22;25589;51.552;13.424;2022-11-24T00:43:36;3.60;99.90
39919;DHT22;25589;51.552;13.424;2022-11-24T00:46:02;3.70;99.90
39919;DHT22;25589;51.552;13.424;2022-11-24T00:48:27;3.40;99.90
39919;DHT22;25589;51.552;13.424;2022-11-24T00:50:59;2.90;99.90
39919;DHT22;25589;51.552;13.424;2022-11-24T00:53:25;3.90;99.90
39919;DHT22;25589;51.552;13.424;2022-11-24T00:55:51;2.60;99.90
39919;DHT22;25589;51.552;13.424;2022-11-24T00:58:17;2.90;99.90
39919;DHT22;25589;51.552;13.424;2022-11-24T01:00:43;3.10;99.90
39919;DHT22;25589;51.552;13.424;2022-11-24T01:03:09;2.90;99.90
39919;DHT22;25589;51.552;13.424;2022-11-24T01:05:38;2.90;99.90
39919;DHT22;25589;51.552;13.424;2022-11-24T01:08:04;1.90;99.90
39919;DHT22;25589;51.552;13.424;2022-11-24T01:10:30;3.50;99.90
39919;DHT22;25589;51.552;13.424;2022-11-24T01:12:56;2.90;99.90
39919;DHT22;25589;51.552;13.424;2022-11-24T01:15:22;3.10;99.90
39919;DHT22;25589;51.552;13.424;2022-11-24T01:17:48;2.90;99.90
39919;DHT22;25589;51.552;13.424;2022-11-24T01:20:14;2.90;99.90
39919;DHT22;25589;51.552;13.424;2022-11-24T01:22:40;2.50;99.90
39919;DHT22;25589;51.552;13.424;2022-11-24T01:25:09;2.80;99.90
39919;DHT22;25589;51.552;13.424;2022-11-24T01:27:35;3.00;99.90
39919;DHT22;25589;51.552;13.424;2022-11-24T01:30:01;3.20;99.90
39919;DHT22;25589;51.552;13.424;2022-11-24T01:32:27;3.00;99.90
39919;DHT22;25589;51.552;13.424;2022-11-24T01:34:53;2.90;99.90
39919;DHT22;25589;51.552;13.424;2022-11-24T01:37:18;2.00;99.90
39919;DHT22;25589;51.552;13.424;2022-11-24T01:39:44;3.40;99.90
39919;DHT22;25589;51.552;13.424;2022-11-24T01:42:10;3.70;99.90
39919;DHT22;25589;51.552;13.424;2022-11-24T01:44:35;2.90;99.90
39919;DHT22;25589;51.552;13.424;2022-11-24T01:47:05;2.70;99.90
39919;DHT22;25589;51.552;13.424;2022-11-24T01:49:44;2.90;99.90
39919;DHT22;25589;51.552;13.424;2022-11-24T01:52:26;1.80;99.90
39919;DHT22;25589;51.552;13.424;2022-11-24T01:54:55;3.30;99.90
39919;DHT22;25589;51.552;13.424;2022-11-24T01:57:25;2.90;99.90
39919;DHT22;25589;51.552;13.424;2022-11-24T01:59:56;2.90;99.90
39919;DHT22;25589;51.552;13.424;2022-11-24T02:02:25;4.20;99.90
39919;DHT22;25589;51.552;13.424;2022-11-24T02:04:52;4.50;99.90
39919;DHT22;25589;51.552;13.424;2022-11-24T02:07:18;1.50;99.90
39919;DHT22;25589;51.552;13.424;2022-11-24T02:09:53;2.80;99.90
39919;DHT22;25589;51.552;13.424;2022-11-24T02:12:21;2.30;99.90
39919;DHT22;25589;51.552;13.424;2022-11-24T02:14:46;2.80;99.90
39919;DHT22;25589;51.552;13.424;2022-11-24T02:17:12;2.70;99.90
39919;DHT22;25589;51.552;13.424;2022-11-24T02:19:53;2.80;99.90
39919;DHT22;25589;51.552;13.424;2022-11-24T02:22:47;2.90;99.90
39919;DHT22;25589;51.552;13.424;2022-11-24T02:28:18;3.70;99.90
39919;DHT22;25589;51.552;13.424;2022-11-24T02:30:44;3.30;99.90
39919;DHT22;25589;51.552;13.424;2022-11-24T02:33:11;2.50;99.90
39919;DHT22;25589;51.552;13.424;2022-11-24T02:38:03;3.00;99.90
39919;DHT22;25589;51.552;13.424;2022-11-24T02:40:29;2.40;99.90
39919;DHT22;25589;51.552;13.424;2022-11-24T02:42:58;2.00;99.90
39919;DHT22;25589;51.552;13.424;2022-11-24T02:45:26;3.20;99.90
39919;DHT22;25589;51.552;13.424;2022-11-24T02:47:52;3.40;99.90
39919;DHT22;25589;51.552;13.424;2022-11-24T02:50:18;2.80;99.90
39919;DHT22;25589;51.552;13.424;2022-11-24T02:52:43;2.60;99.90
39919;DHT22;25589;51.552;13.424;2022-11-24T02:55:09;2.40;99.90
39919;DHT22;25589;51.552;13.424;2022-11-24T02:57:34;3.20;99.90
39919;DHT22;25589;51.552;13.424;2022-11-24T03:00:00;2.60;99.90
39919;DHT22;25589;51.552;13.424;2022-11-24T03:02:26;2.50;99.90
39919;DHT22;25589;51.552;13.424;2022-11-24T03:04:51;2.60;99.90
39919;DHT22;25589;51.552;13.424;2022-11-24T03:07:17;2.60;99.90
39919;DHT22;25589;51.552;13.424;2022-11-24T03:09:42;2.60;99.90
39919;DHT22;25589;51.552;13.424;2022-11-24T03:12:08;2.60;99.90
39919;DHT22;25589;51.552;13.424;2022-11-24T03:14:34;2.40;99.90
39919;DHT22;25589;51.552;13.424;2022-11-24T03:16:59;2.60;99.90
39919;DHT22;25589;51.552;13.424;2022-11-24T03:19:25;2.60;99.90
39919;DHT22;25589;51.552;13.424;2022-11-24T03:21:50;2.70;99.90
39919;DHT22;25589;51.552;13.424;2022-11-24T03:24:16;2.10;99.90
39919;DHT22;25589;51.552;13.424;2022-11-24T03:26:41;2.80;99.90
39919;DHT22;25589;51.552;13.424;2022-11-24T03:29:08;3.20;99.90
39919;DHT22;25589;51.552;13.424;2022-11-24T03:31:33;2.30;99.90
39919;DHT22;25589;51.552;13.424;2022-11-24T03:36:25;2.10;99.90
39919;DHT22;25589;51.552;13.424;2022-11-24T03:38:51;2.20;99.90
39919;DHT22;25589;51.552;13.424;2022-11-24T03:41:16;2.50;99.90
39919;DHT22;25589;51.552;13.424;2022-11-24T03:43:43;2.50;99.90
39919;DHT22;25589;51.552;13.424;2022-11-24T03:46:08;2.50;99.90
39919;DHT22;25589;51.552;13.424;2022-11-24T03:48:34;2.50;99.90
39919;DHT22;25589;51.552;13.424;2022-11-24T03:51:00;3.70;99.90
39919;DHT22;25589;51.552;13.424;2022-11-24T03:53:28;2.50;99.90
39919;DHT22;25589;51.552;13.424;2022-11-24T03:55:54;3.30;99.90
39919;DHT22;25589;51.552;13.424;2022-11-24T03:58:20;2.60;99.90
39919;DHT22;25589;51.552;13.424;2022-11-24T04:00:50;2.60;99.90
39919;DHT22;25589;51.552;13.424;2022-11-24T04:03:17;3.10;99.90
39919;DHT22;25589;51.552;13.424;2022-11-24T04:05:44;1.70;99.90
39919;DHT22;25589;51.552;13.424;2022-11-24T04:08:10;2.50;99.90
39919;DHT22;25589;51.552;13.424;2022-11-24T04:10:37;3.30;99.90
39919;DHT22;25589;51.552;13.424;2022-11-24T04:13:04;2.50;99.90
39919;DHT22;25589;51.552;13.424;2022-11-24T04:15:34;2.50;99.90
39919;DHT22;25589;51.552;13.424;2022-11-24T04:18:01;2.10;99.90
39919;DHT22;25589;51.552;13.424;2022-11-24T04:20:27;2.50;99.90
39919;DHT22;25589;51.552;13.424;2022-11-24T04:25:18;3.70;99.90
39919;DHT22;25589;51.552;13.424;2022-11-24T04:27:44;3.30;99.90
39919;DHT22;25589;51.552;13.424;2022-11-24T04:30:10;2.60;99.90
39919;DHT22;25589;51.552;13.424;2022-11-24T04:32:36;2.60;99.90
39919;DHT22;25589;51.552;13.424;2022-11-24T04:35:02;1.50;99.90
39919;DHT22;25589;51.552;13.424;2022-11-24T04:37:27;3.10;99.90
39919;DHT22;25589;51.552;13.424;2022-11-24T04:39:53;2.70;99.90
39919;DHT22;25589;51.552;13.424;2022-11-24T04:42:20;2.70;99.90
39919;DHT22;25589;51.552;13.424;2022-11-24T04:44:45;2.10;99.90
39919;DHT22;25589;51.552;13.424;2022-11-24T04:47:14;2.70;99.90
39919;DHT22;25589;51.552;13.424;2022-11-24T04:49:41;2.80;99.90
39919;DHT22;25589;51.552;13.424;2022-11-24T04:52:06;2.90;99.90
39919;DHT22;25589;51.552;13.424;2022-11-24T04:54:32;3.40;99.90
39919;DHT22;25589;51.552;13.424;2022-11-24T04:56:57;2.80;99.90
39919;DHT22;25589;51.552;13.424;2022-11-24T04:59:23;2.50;99.90
39919;DHT22;25589;51.552;13.424;2022-11-24T05:01:49;2.40;99.90
39919;DHT22;25589;51.552;13.424;2022-11-24T05:04:14;3.60;99.90
39919;DHT22;25589;51.552;13.424;2022-11-24T05:06:40;2.20;99.90
39919;DHT22;25589;51.552;13.424;2022-11-24T05:09:06;2.80;99.90
39919;DHT22;25589;51.552;13.424;2022-11-24T05:11:32;2.80;99.90
39919;DHT22;25589;51.552;13.424;2022-11-24T05:13:58;2.50;99.90
39919;DHT22;25589;51.552;13.424;2022-11-24T05:16:24;1.60;99.90
39919;DHT22;25589;51.552;13.424;2022-11-24T05:18:49;4.20;99.90
39919;DHT22;25589;51.552;13.424;2022-11-24T05:21:15;3.60;99.90
39919;DHT22;25589;51.552;13.424;2022-11-24T05:23:41;2.80;99.90
39919;DHT22;25589;51.552;13.424;2022-11-24T05:26:06;3.20;99.90
39919;DHT22;25589;51.552;13.424;2022-11-24T05:28:32;3.40;99.90
39919;DHT22;25589;51.552;13.424;2022-11-24T05:31:02;3.90;99.90
39919;DHT22;25589;51.552;13.424;2022-11-24T05:33:28;3.80;99.90
39919;DHT22;25589;51.552;13.424;2022-11-24T05:35:54;2.90;99.90
39919;DHT22;25589;51.552;13.424;2022-11-24T05:38:20;2.90;99.90
39919;DHT22;25589;51.552;13.424;2022-11-24T05:40:47;2.50;99.90
39919;DHT22;25589;51.552;13.424;2022-11-24T05:43:14;3.00;99.90
39919;DHT22;25589;51.552;13.424;2022-11-24T05:45:40;3.10;99.90
39919;DHT22;25589;51.552;13.424;2022-11-24T05:48:08;3.10;99.90
39919;DHT22;25589;51.552;13.424;2022-11-24T05:50:34;3.10;99.90
39919;DHT22;25589;51.552;13.424;2022-11-24T05:53:04;2.30;99.90
39919;DHT22;25589;51.552;13.424;2022-11-24T05:55:31;3.20;99.90
39919;DHT22;25589;51.552;13.424;2022-11-24T05:57:58;3.10;99.90
39919;DHT22;25589;51.552;13.424;2022-11-24T06:00:24;3.10;99.90
39919;DHT22;25589;51.552;13.424;2022-11-24T06:02:50;4.10;99.90
39919;DHT22;25589;51.552;13.424;2022-11-24T06:05:16;3.50;99.90
39919;DHT22;25589;51.552;13.424;2022-11-24T06:07:42;3.00;99.90
39919;DHT22;25589;51.552;13.424;2022-11-24T06:10:08;3.10;99.90
39919;DHT22;25589;51.552;13.424;2022-11-24T06:14:59;2.90;99.90
39919;DHT22;25589;51.552;13.424;2022-11-24T06:17:25;3.80;99.90
39919;DHT22;25589;51.552;13.424;2022-11-24T06:19:51;4.20;99.90
39919;DHT22;25589;51.552;13.424;2022-11-24T06:22:16;3.30;99.90
39919;DHT22;25589;51.552;13.424;2022-11-24T06:24:43;3.40;99.90
39919;DHT22;25589;51.552;13.424;2022-11-24T06:27:11;3.30;99.90
39919;DHT22;25589;51.552;13.424;2022-11-24T06:29:37;3.80;99.90
39919;DHT22;25589;51.552;13.424;2022-11-24T06:32:03;3.80;99.90
39919;DHT22;25589;51.552;13.424;2022-11-24T06:34:28;3.40;99.90
39919;DHT22;25589;51.552;13.424;2022-11-24T06:36:54;3.50;99.90
39919;DHT22;25589;51.552;13.424;2022-11-24T06:39:19;4.60;99.90
39919;DHT22;25589;51.552;13.424;2022-11-24T06:41:45;3.50;99.90
39919;DHT22;25589;51.552;13.424;2022-11-24T06:44:10;3.60;99.90
39919;DHT22;25589;51.552;13.424;2022-11-24T06:46:36;3.60;99.90
39919;DHT22;25589;51.552;13.424;2022-11-24T06:49:01;3.70;99.90
39919;DHT22;25589;51.552;13.424;2022-11-24T06:51:27;3.70;99.90
39919;DHT22;25589;51.552;13.424;2022-11-24T06:53:53;3.70;99.90
39919;DHT22;25589;51.552;13.424;2022-11-24T06:56:19;3.40;99.90
39919;DHT22;25589;51.552;13.424;2022-11-24T06:58:50;3.60;99.90
39919;DHT22;25589;51.552;13.424;2022-11-24T07:01:18;3.90;99.90
39919;DHT22;25589;51.552;13.424;2022-11-24T07:03:45;4.20;99.90
39919;DHT22;25589;51.552;13.424;2022-11-24T07:06:10;3.60;99.90
39919;DHT22;25589;51.552;13.424;2022-11-24T07:08:36;4.90;99.90
39919;DHT22;25589;51.552;13.424;2022-11-24T07:11:10;4.10;99.90
39919;DHT22;25589;51.552;13.424;2022-11-24T07:13:36;3.40;99.90
39919;DHT22;25589;51.552;13.424;2022-11-24T07:16:19;3.90;99.90
39919;DHT22;25589;51.552;13.424;2022-11-24T07:18:46;4.90;99.90
39919;DHT22;25589;51.552;13.424;2022-11-24T07:21:12;4.20;99.90
39919;DHT22;25589;51.552;13.424;2022-11-24T07:23:38;5.00;99.90
39919;DHT22;25589;51.552;13.424;2022-11-24T07:26:05;4.00;99.90
39919;DHT22;25589;51.552;13.424;2022-11-24T07:28:31;4.70;99.90
39919;DHT22;25589;51.552;13.424;2022-11-24T07:30:57;5.30;99.90
39919;DHT22;25589;51.552;13.424;2022-11-24T07:33:23;4.90;99.90
39919;DHT22;25589;51.552;13.424;2022-11-24T07:35:53;4.10;99.90
39919;DHT22;25589;51.552;13.424;2022-11-24T07:38:19;4.90;99.90
39919;DHT22;25589;51.552;13.424;2022-11-24T07:40:45;5.10;99.90
39919;DHT22;25589;51.552;13.424;2022-11-24T07:43:11;4.10;99.90
39919;DHT22;25589;51.552;13.424;2022-11-24T07:45:36;5.00;99.90
39919;DHT22;25589;51.552;13.424;2022-11-24T07:48:02;4.40;99.90
39919;DHT22;25589;51.552;13.424;2022-11-24T07:50:28;4.60;99.90
39919;DHT22;25589;51.552;13.424;2022-11-24T07:52:53;4.10;99.90
39919;DHT22;25589;51.552;13.424;2022-11-24T07:55:19;4.40;99.90
39919;DHT22;25589;51.552;13.424;2022-11-24T07:57:44;3.10;99.90
39919;DHT22;25589;51.552;13.424;2022-11-24T08:00:10;5.00;99.90
39919;DHT22;25589;51.552;13.424;2022-11-24T08:02:37;4.30;99.90
39919;DHT22;25589;51.552;13.424;2022-11-24T08:05:02;4.30;99.90
39919;DHT22;25589;51.552;13.424;2022-11-24T08:07:28;4.20;99.90
39919;DHT22;25589;51.552;13.424;2022-11-24T08:09:54;4.30;99.90
39919;DHT22;25589;51.552;13.424;2022-11-24T08:12:19;3.50;99.90
39919;DHT22;25589;51.552;13.424;2022-11-24T08:14:48;5.70;99.90
39919;DHT22;25589;51.552;13.424;2022-11-24T08:17:15;4.60;99.90
39919;DHT22;25589;51.552;13.424;2022-11-24T08:22:07;5.40;99.90
39919;DHT22;25589;51.552;13.424;2022-11-24T08:24:32;4.90;99.90
39919;DHT22;25589;51.552;13.424;2022-11-24T08:26:58;4.70;99.90
39919;DHT22;25589;51.552;13.424;2022-11-24T08:29:27;5.00;99.90
39919;DHT22;25589;51.552;13.424;2022-11-24T08:31:53;4.60;99.90
39919;DHT22;25589;51.552;13.424;2022-11-24T08:34:22;5.10;99.90
39919;DHT22;25589;51.552;13.424;2022-11-24T08:36:49;5.80;99.90
39919;DHT22;25589;51.552;13.424;2022-11-24T08:39:14;5.00;99.90
39919;DHT22;25589;51.552;13.424;2022-11-24T08:41:40;5.50;99.90
39919;DHT22;25589;51.552;13.424;2022-11-24T08:44:06;5.40;99.90
39919;DHT22;25589;51.552;13.424;2022-11-24T08:46:33;5.20;99.90
39919;DHT22;25589;51.552;13.424;2022-11-24T08:48:58;5.30;99.90
39919;DHT22;25589;51.552;13.424;2022-11-24T08:51:25;4.90;99.90
39919;DHT22;25589;51.552;13.424;2022-11-24T08:53:56;5.40;99.90
39919;DHT22;25589;51.552;13.424;2022-11-24T08:56:23;5.40;99.90
39919;DHT22;25589;51.552;13.424;2022-11-24T08:58:49;6.10;99.90
39919;DHT22;25589;51.552;13.424;2022-11-24T09:01:16;6.70;99.90
39919;DHT22;25589;51.552;13.424;2022-11-24T09:03:43;5.60;99.90
39919;DHT22;25589;51.552;13.424;2022-11-24T09:06:09;4.50;99.90
39919;DHT22;25589;51.552;13.424;2022-11-24T09:08:36;6.50;99.90
39919;DHT22;25589;51.552;13.424;2022-11-24T09:11:08;6.30;99.90
39919;DHT22;25589;51.552;13.424;2022-11-24T09:13:34;5.90;99.90
39919;DHT22;25589;51.552;13.424;2022-11-24T09:16:04;5.70;99.90
39919;DHT22;25589;51.552;13.424;2022-11-24T09:18:31;4.40;99.90
39919;DHT22;25589;51.552;13.424;2022-11-24T09:21:11;5.70;99.90
39919;DHT22;25589;51.552;13.424;2022-11-24T09:23:38;5.70;99.90
39919;DHT22;25589;51.552;13.424;2022-11-24T09:26:08;5.60;99.90
39919;DHT22;25589;51.552;13.424;2022-11-24T09:28:34;6.50;99.90
39919;DHT22;25589;51.552;13.424;2022-11-24T09:31:02;5.40;99.90
39919;DHT22;25589;51.552;13.424;2022-11-24T09:33:28;5.70;99.90
39919;DHT22;25589;51.552;13.424;2022-11-24T09:35:54;5.60;99.90
39919;DHT22;25589;51.552;13.424;2022-11-24T09:38:19;6.30;99.90
39919;DHT22;25589;51.552;13.424;2022-11-24T09:40:45;5.90;99.90
39919;DHT22;25589;51.552;13.424;2022-11-24T09:46:26;5.70;99.90
39919;DHT22;25589;51.552;13.424;2022-11-24T09:48:56;6.30;99.90
39919;DHT22;25589;51.552;13.424;2022-11-24T09:51:26;6.70;99.90
39919;DHT22;25589;51.552;13.424;2022-11-24T09:54:07;5.60;99.90
39919;DHT22;25589;51.552;13.424;2022-11-24T09:56:37;6.70;99.90
39919;DHT22;25589;51.552;13.424;2022-11-24T09:59:24;6.70;99.90
39919;DHT22;25589;51.552;13.424;2022-11-24T10:01:51;6.80;99.90
39919;DHT22;25589;51.552;13.424;2022-11-24T10:04:20;6.60;99.90
39919;DHT22;25589;51.552;13.424;2022-11-24T10:18:24;6.10;99.90
39919;DHT22;25589;51.552;13.424;2022-11-24T10:21:06;7.10;99.90
39919;DHT22;25589;51.552;13.424;2022-11-24T10:26:34;7.90;99.90
39919;DHT22;25589;51.552;13.424;2022-11-24T10:31:34;6.20;99.90
39919;DHT22;25589;51.552;13.424;2022-11-24T10:34:18;7.00;99.90
39919;DHT22;25589;51.552;13.424;2022-11-24T10:37:03;7.60;99.90
39919;DHT22;25589;51.552;13.424;2022-11-24T10:42:22;8.30;99.90
39919;DHT22;25589;51.552;13.424;2022-11-24T10:45:16;8.50;99.90
39919;DHT22;25589;51.552;13.424;2022-11-24T10:47:43;8.20;99.90
39919;DHT22;25589;51.552;13.424;2022-11-24T10:50:27;9.10;99.90
39919;DHT22;25589;51.552;13.424;2022-11-24T10:55:24;8.60;99.90
39919;DHT22;25589;51.552;13.424;2022-11-24T10:57:50;7.70;99.90
39919;DHT22;25589;51.552;13.424;2022-11-24T11:02:47;8.80;99.90
39919;DHT22;25589;51.552;13.424;2022-11-24T11:05:30;9.10;99.90
39919;DHT22;25589;51.552;13.424;2022-11-24T11:10:39;7.90;99.90
39919;DHT22;25589;51.552;13.424;2022-11-24T11:15:45;9.50;99.90
39919;DHT22;25589;51.552;13.424;2022-11-24T11:18:15;9.10;99.90
39919;DHT22;25589;51.552;13.424;2022-11-24T11:23:30;9.30;99.90
39919;DHT22;25589;51.552;13.424;2022-11-24T11:26:15;9.40;99.90
39919;DHT22;25589;51.552;13.424;2022-11-24T11:28:56;9.60;99.90
39919;DHT22;25589;51.552;13.424;2022-11-24T11:31:23;9.60;99.90
39919;DHT22;25589;51.552;13.424;2022-11-24T11:36:37;8.90;99.90
39919;DHT22;25589;51.552;13.424;2022-11-24T11:39:03;9.60;99.90
39919;DHT22;25589;51.552;13.424;2022-11-24T11:46:49;9.60;99.90
39919;DHT22;25589;51.552;13.424;2022-11-24T11:49:14;9.50;99.90
39919;DHT22;25589;51.552;13.424;2022-11-24T11:52:07;9.50;99.90
39919;DHT22;25589;51.552;13.424;2022-11-24T11:57:39;9.40;99.90
39919;DHT22;25589;51.552;13.424;2022-11-24T12:00:18;9.20;99.90
39919;DHT22;25589;51.552;13.424;2022-11-24T12:08:30;9.20;99.90
39919;DHT22;25589;51.552;13.424;2022-11-24T12:11:30;9.40;99.90
39919;DHT22;25589;51.552;13.424;2022-11-24T12:14:30;9.30;99.90
39919;DHT22;25589;51.552;13.424;2022-11-24T12:17:46;10.30;99.90
39919;DHT22;25589;51.552;13.424;2022-11-24T12:25:24;8.70;99.90
39919;DHT22;25589;51.552;13.424;2022-11-24T12:31:04;9.90;99.90
39919;DHT22;25589;51.552;13.424;2022-11-24T12:34:03;9.70;99.90
39919;DHT22;25589;51.552;13.424;2022-11-24T12:36:51;9.80;99.90
39919;DHT22;25589;51.552;13.424;2022-11-24T12:39:34;10.20;99.90
39919;DHT22;25589;51.552;13.424;2022-11-24T12:44:49;10.50;99.90
39919;DHT22;25589;51.552;13.424;2022-11-24T12:52:40;10.90;99.90
39919;DHT22;25589;51.552;13.424;2022-11-24T12:55:18;10.90;99.90
39919;DHT22;25589;51.552;13.424;2022-11-24T12:57:54;11.50;99.90
39919;DHT22;25589;51.552;13.424;2022-11-24T13:06:15;10.30;99.90
39919;DHT22;25589;51.552;13.424;2022-11-24T13:08:42;11.10;99.90
39919;DHT22;25589;51.552;13.424;2022-11-24T13:16:24;10.10;99.90
39919;DHT22;25589;51.552;13.424;2022-11-24T13:23:57;10.20;99.90
39919;DHT22;25589;51.552;13.424;2022-11-24T13:26:46;10.20;99.90
39919;DHT22;25589;51.552;13.424;2022-11-24T13:29:35;10.30;99.90
39919;DHT22;25589;51.552;13.424;2022-11-24T13:42:22;9.70;99.90
39919;DHT22;25589;51.552;13.424;2022-11-24T13:44:56;10.40;99.90
39919;DHT22;25589;51.552;13.424;2022-11-24T13:47:32;10.40;99.90
39919;DHT22;25589;51.552;13.424;2022-11-24T13:49:59;10.20;99.90
39919;DHT22;25589;51.552;13.424;2022-11-24T14:00:30;10.80;99.90
39919;DHT22;25589;51.552;13.424;2022-11-24T14:03:03;10.40;99.90
39919;DHT22;25589;51.552;13.424;2022-11-24T14:05:38;10.20;99.90
39919;DHT22;25589;51.552;13.424;2022-11-24T14:10:35;10.50;99.90
39919;DHT22;25589;51.552;13.424;2022-11-24T14:18:27;10.40;99.90
39919;DHT22;25589;51.552;13.424;2022-11-24T14:20:55;10.10;99.90
39919;DHT22;25589;51.552;13.424;2022-11-24T14:23:20;10.00;99.90
39919;DHT22;25589;51.552;13.424;2022-11-24T14:25:47;9.80;99.90
39919;DHT22;25589;51.552;13.424;2022-11-24T14:28:25;10.10;99.90
39919;DHT22;25589;51.552;13.424;2022-11-24T14:31:08;9.80;99.90
39919;DHT22;25589;51.552;13.424;2022-11-24T14:33:40;9.70;99.90
39919;DHT22;25589;51.552;13.424;2022-11-24T14:36:13;9.60;99.90
39919;DHT22;25589;51.552;13.424;2022-11-24T14:38:39;9.50;99.90
39919;DHT22;25589;51.552;13.424;2022-11-24T14:41:22;9.40;99.90
39919;DHT22;25589;51.552;13.424;2022-11-24T14:44:16;9.30;99.90
39919;DHT22;25589;51.552;13.424;2022-11-24T14:46:43;9.70;99.90
39919;DHT22;25589;51.552;13.424;2022-11-24T14:49:09;9.80;99.90
39919;DHT22;25589;51.552;13.424;2022-11-24T14:51:36;8.20;99.90
39919;DHT22;25589;51.552;13.424;2022-11-24T14:54:05;8.90;99.90
39919;DHT22;25589;51.552;13.424;2022-11-24T14:56:37;9.50;99.90
39919;DHT22;25589;51.552;13.424;2022-11-24T14:59:24;8.20;99.90
39919;DHT22;25589;51.552;13.424;2022-11-24T15:01:50;8.90;99.90
39919;DHT22;25589;51.552;13.424;2022-11-24T15:04:24;8.00;99.90
39919;DHT22;25589;51.552;13.424;2022-11-24T15:09:37;9.40;99.90
39919;DHT22;25589;51.552;13.424;2022-11-24T15:12:17;8.80;99.90
39919;DHT22;25589;51.552;13.424;2022-11-24T15:14:50;9.10;99.90
39919;DHT22;25589;51.552;13.424;2022-11-24T15:17:21;9.50;99.90
39919;DHT22;25589;51.552;13.424;2022-11-24T15:19:51;8.60;99.90
39919;DHT22;25589;51.552;13.424;2022-11-24T15:25:00;8.80;99.90
39919;DHT22;25589;51.552;13.424;2022-11-24T15:27:26;8.80;99.90
39919;DHT22;25589;51.552;13.424;2022-11-24T15:29:52;8.70;99.90
39919;DHT22;25589;51.552;13.424;2022-11-24T15:32:17;8.80;99.90
39919;DHT22;25589;51.552;13.424;2022-11-24T15:34:43;8.20;99.90
39919;DHT22;25589;51.552;13.424;2022-11-24T15:37:08;8.60;99.90
39919;DHT22;25589;51.552;13.424;2022-11-24T15:39:34;9.70;99.90
39919;DHT22;25589;51.552;13.424;2022-11-24T15:42:00;8.50;99.90
39919;DHT22;25589;51.552;13.424;2022-11-24T15:44:26;9.10;99.90
39919;DHT22;25589;51.552;13.424;2022-11-24T15:46:51;8.90;99.90
39919;DHT22;25589;51.552;13.424;2022-11-24T15:49:19;8.40;99.90
39919;DHT22;25589;51.552;13.424;2022-11-24T15:51:46;8.20;99.90
39919;DHT22;25589;51.552;13.424;2022-11-24T15:54:14;8.50;99.90
39919;DHT22;25589;51.552;13.424;2022-11-24T15:56:41;8.40;99.90
39919;DHT22;25589;51.552;13.424;2022-11-24T15:59:13;9.30;99.90
39919;DHT22;25589;51.552;13.424;2022-11-24T16:01:40;7.70;99.90
39919;DHT22;25589;51.552;13.424;2022-11-24T16:04:07;8.70;99.90
39919;DHT22;25589;51.552;13.424;2022-11-24T16:06:32;8.40;99.90
39919;DHT22;25589;51.552;13.424;2022-11-24T16:08:58;8.40;99.90
39919;DHT22;25589;51.552;13.424;2022-11-24T16:11:24;8.30;99.90
39919;DHT22;25589;51.552;13.424;2022-11-24T16:13:50;8.40;99.90
39919;DHT22;25589;51.552;13.424;2022-11-24T16:16:16;7.40;99.90
39919;DHT22;25589;51.552;13.424;2022-11-24T16:18:41;8.30;99.90
39919;DHT22;25589;51.552;13.424;2022-11-24T16:21:10;8.40;99.90
39919;DHT22;25589;51.552;13.424;2022-11-24T16:23:36;8.40;99.90
39919;DHT22;25589;51.552;13.424;2022-11-24T16:26:03;8.40;99.90
39919;DHT22;25589;51.552;13.424;2022-11-24T16:28:29;8.30;99.90
39919;DHT22;25589;51.552;13.424;2022-11-24T16:30:54;8.30;99.90
39919;DHT22;25589;51.552;13.424;2022-11-24T16:33:20;7.60;99.90
39919;DHT22;25589;51.552;13.424;2022-11-24T16:35:46;8.10;99.90
39919;DHT22;25589;51.552;13.424;2022-11-24T16:38:17;9.10;99.90
39919;DHT22;25589;51.552;13.424;2022-11-24T16:40:43;9.40;99.90
39919;DHT22;25589;51.552;13.424;2022-11-24T16:43:08;8.40;99.90
39919;DHT22;25589;51.552;13.424;2022-11-24T16:45:34;8.90;99.90
39919;DHT22;25589;51.552;13.424;2022-11-24T16:47:59;7.60;99.90
39919;DHT22;25589;51.552;13.424;2022-11-24T16:50:25;8.40;99.90
39919;DHT22;25589;51.552;13.424;2022-11-24T16:52:51;8.00;99.90
39919;DHT22;25589;51.552;13.424;2022-11-24T16:55:16;7.90;99.90
39919;DHT22;25589;51.552;13.424;2022-11-24T16:57:42;7.40;99.90
39919;DHT22;25589;51.552;13.424;2022-11-24T17:00:08;8.10;99.90
39919;DHT22;25589;51.552;13.424;2022-11-24T17:02:34;8.20;99.90
39919;DHT22;25589;51.552;13.424;2022-11-24T17:05:00;7.60;99.90
39919;DHT22;25589;51.552;13.424;2022-11-24T17:07:27;8.20;99.90
39919;DHT22;25589;51.552;13.424;2022-11-24T17:09:52;7.30;99.90
39919;DHT22;25589;51.552;13.424;2022-11-24T17:12:18;8.60;99.90
39919;DHT22;25589;51.552;13.424;2022-11-24T17:14:43;8.00;99.90
39919;DHT22;25589;51.552;13.424;2022-11-24T17:17:09;8.00;99.90
39919;DHT22;25589;51.552;13.424;2022-11-24T17:19:34;8.10;99.90
39919;DHT22;25589;51.552;13.424;2022-11-24T17:22:00;8.40;99.90
39919;DHT22;25589;51.552;13.424;2022-11-24T17:24:25;7.90;99.90
39919;DHT22;25589;51.552;13.424;2022-11-24T17:26:51;8.00;99.90
39919;DHT22;25589;51.552;13.424;2022-11-24T17:29:17;8.00;99.90
39919;DHT22;25589;51.552;13.424;2022-11-24T17:31:43;8.50;99.90
39919;DHT22;25589;51.552;13.424;2022-11-24T17:34:10;7.90;99.90
39919;DHT22;25589;51.552;13.424;2022-11-24T17:36:36;7.80;99.90
39919;DHT22;25589;51.552;13.424;2022-11-24T17:39:03;9.00;99.90
39919;DHT22;25589;51.552;13.424;2022-11-24T17:41:30;7.80;99.90
39919;DHT22;25589;51.552;13.424;2022-11-24T17:43:56;6.90;99.90
39919;DHT22;25589;51.552;13.424;2022-11-24T17:46:25;7.80;99.90
39919;DHT22;25589;51.552;13.424;2022-11-24T17:48:51;8.20;99.90
39919;DHT22;25589;51.552;13.424;2022-11-24T17:51:19;7.60;99.90
39919;DHT22;25589;51.552;13.424;2022-11-24T17:53:46;7.10;99.90